Brighton, MI (48114)

7:08 AM EST on December 07, 2016 (GMT -0500)
Hunters Ridge | | Change Station

Elev 988 ft 42.58 °N, 83.77 °W | Updated 27 seconds ago

Overcast
Overcast
30.4 °F
Feels Like 25 °F
N
4.7
Wind Variable Wind from WSW

Today
High -- | Low -- °F
--% Chance of Precip.
Yesterday
High -- | Low -- °F
Precip. -- in
Pressure 29.93 in
Visibility 10.0 miles
Clouds Overcast 2900 ft
Windchill 25 °F
Dew Point 24 °F
Humidity 76%
Rainfall 0.00 in
Snow Depth Not available.
7:51 AM 5:01 PM
First Quarter, 52% visible
METAR KOZW 071154Z AUTO 24011G15KT 10SM OVC029 00/M05 A2993 RMK AO2 T10021052
Pressure 29.93 in
Visibility 10.0 miles
Clouds Overcast 2900 ft
Windchill 25 °F
Dew Point 24 °F
Humidity 76%
Rainfall 0.00 in
Snow Depth Not available.
7:51 AM 5:01 PM
First Quarter, 52% visible
METAR KOZW 071154Z AUTO 24011G15KT 10SM OVC029 00/M05 A2993 RMK AO2 T10021052

10-Day Weather Forecast

Almanac

Astronomy

Dec. 07, 2016 Rise Set
Actual Time
Civil Twilight
Nautical Twilight
Astronomical Twilight
Moon
Length of Visible Light
Length of Day
Tomorrow will be .
, % of the Moon is Illuminated

Today's Extremes

State Highs State Lows

Community

WunderPhotos

Upload Photos

1,956,111 photos uploaded!

WunderBlog® & News

Nearby

Air Quality

  Air Quality AQ Index Pollutant
Not available.

Snow Depth

Station Depth Elevation

Earthquake Activity

City Distance Mag. Time & Date
Minimum magnitude displayed is 2.5.

Coastal Water Temperatures

Place Temperature

Stations

Nearby Weather Stations

Station Location Temp. Windchill Dew Point Humidity Wind Precip. Elev Updated Type
                   

Watches & Warnings

There are currently no watches in effect.